Time;durP1;ratioP1;P1;durP2;ratioP2;P2;SDS_P1;SDS_P2;PMS_P1;PMS_P2;Temp;Humidity;BMP_temperature;BMP_pressure;BME280_temperature;BME280_humidity;BME280_pressure;Samples;Min_cycle;Max_cycle;Signal;HPM_P1;HPM_P2
2022/10/07 00:00:53;;;;;;;1.60;1.50;;;15.40;74.80;15.60;97563.00;;;;5073242;28;20191;-88
2022/10/07 00:03:24;;;;;;;2.23;1.30;;;15.40;74.70;15.60;97562.00;;;;5072816;28;20321;-89
2022/10/07 00:06:02;;;;;;;1.60;1.20;;;15.40;74.70;15.50;97559.00;;;;5073170;28;20536;-88
2022/10/07 00:08:31;;;;;;;1.07;1.07;;;15.40;74.60;15.50;97562.00;;;;5072524;28;20649;-88
2022/10/07 00:11:04;;;;;;;1.33;1.17;;;15.30;74.40;15.50;97555.00;;;;5072970;28;20756;-88
2022/10/07 00:13:31;;;;;;;1.30;1.20;;;15.30;74.40;15.40;97556.00;;;;5067255;28;20284;-89
2022/10/07 00:16:05;;;;;;;1.30;1.20;;;15.20;74.30;15.40;97557.00;;;;5067757;28;20193;-89
2022/10/07 00:18:34;;;;;;;1.37;1.00;;;15.20;74.30;15.40;97556.00;;;;5072828;28;20188;-88
2022/10/07 00:21:07;;;;;;;2.53;1.43;;;15.20;74.40;15.30;97561.00;;;;5068214;28;20200;-88
2022/10/07 00:23:36;;;;;;;1.50;1.30;;;15.20;74.40;15.30;97557.00;;;;5052894;28;20277;-89
2022/10/07 00:26:06;;;;;;;2.80;1.27;;;15.20;74.70;15.30;97559.00;;;;5052803;28;20279;-88
2022/10/07 00:28:34;;;;;;;1.73;1.17;;;15.10;74.80;15.30;97550.00;;;;5068072;28;20212;-88
2022/10/07 00:31:04;;;;;;;1.40;1.13;;;15.10;74.90;15.30;97546.00;;;;5072637;28;20748;-88
2022/10/07 00:33:34;;;;;;;2.10;1.70;;;15.10;74.90;15.30;97546.00;;;;5072377;28;20282;-88
2022/10/07 00:36:01;;;;;;;1.80;1.17;;;15.10;74.90;15.30;97542.00;;;;5072627;28;20206;-89
2022/10/07 00:38:28;;;;;;;1.63;1.20;;;15.10;74.90;15.30;97540.00;;;;5072681;28;20204;-88
2022/10/07 00:40:57;;;;;;;6.30;1.50;;;15.00;74.80;15.20;97538.00;;;;5072171;28;20195;-88
2022/10/07 00:43:28;;;;;;;1.20;1.20;;;15.10;74.90;15.20;97544.00;;;;5072505;28;20291;-88
2022/10/07 00:46:01;;;;;;;1.63;1.40;;;15.00;74.90;15.20;97533.00;;;;5072069;28;20199;-88
2022/10/07 00:48:31;;;;;;;1.33;1.23;;;14.90;74.80;15.20;97527.00;;;;5072385;28;20231;-88
2022/10/07 00:51:01;;;;;;;3.27;1.47;;;15.00;74.80;15.20;97521.00;;;;5086185;28;20199;-88
2022/10/07 00:53:33;;;;;;;1.40;1.20;;;15.00;74.70;15.20;97511.00;;;;5092734;28;20290;-89
2022/10/07 00:56:05;;;;;;;1.27;1.17;;;15.00;74.70;15.10;97519.00;;;;5082611;28;20279;-88
2022/10/07 00:58:40;;;;;;;1.33;1.23;;;14.90;74.70;15.10;97514.00;;;;5072605;28;20192;-88
2022/10/07 01:01:08;;;;;;;1.50;1.27;;;14.90;74.70;15.10;97502.00;;;;5072009;28;20656;-88
2022/10/07 01:03:36;;;;;;;1.27;1.17;;;14.90;74.70;15.10;97498.00;;;;5072474;28;20200;-88
2022/10/07 01:06:05;;;;;;;1.30;1.20;;;14.90;74.70;15.00;97496.00;;;;5070262;28;20200;-89
2022/10/07 01:08:33;;;;;;;3.53;1.80;;;14.90;74.70;15.10;97494.00;;;;5068235;28;20901;-90
2022/10/07 01:11:17;;;;;;;1.77;1.67;;;14.90;74.70;15.00;97492.00;;;;5068710;28;20199;-86
2022/10/07 01:13:58;;;;;;;4.53;2.10;;;14.80;74.70;15.00;97493.00;;;;5077502;28;20188;-87
2022/10/07 01:16:37;;;;;;;1.90;1.80;;;14.80;74.60;15.00;97493.00;;;;5084326;28;20192;-87
2022/10/07 01:19:22;;;;;;;3.87;1.80;;;14.80;74.60;15.00;97489.00;;;;5073480;28;20231;-87
2022/10/07 01:22:10;;;;;;;3.40;1.87;;;14.80;74.60;14.90;97492.00;;;;5074024;28;20184;-87
2022/10/07 01:24:45;;;;;;;1.77;1.67;;;14.70;74.60;14.90;97490.00;;;;5087064;28;20204;-87
2022/10/07 01:27:17;;;;;;;2.10;1.93;;;14.80;74.70;14.90;97485.00;;;;5080703;28;20255;-87
2022/10/07 01:29:54;;;;;;;2.87;1.80;;;14.70;74.70;14.90;97484.00;;;;5086353;28;20228;-87
2022/10/07 01:32:30;;;;;;;2.33;2.13;;;14.70;74.90;14.90;97472.00;;;;5074698;28;20203;-88
2022/10/07 01:35:00;;;;;;;2.77;2.40;;;14.70;75.00;14.90;97471.00;;;;5075917;28;20223;-87
2022/10/07 01:37:34;;;;;;;3.70;2.70;;;14.80;75.00;14.90;97472.00;;;;5094514;28;20204;-86
2022/10/07 01:40:08;;;;;;;2.57;2.23;;;14.70;75.00;14.90;97466.00;;;;5094334;28;20227;-87
2022/10/07 01:42:38;;;;;;;2.60;2.40;;;14.70;75.10;14.90;97463.00;;;;5076648;28;20200;-87
2022/10/07 01:45:10;;;;;;;2.50;2.30;;;14.70;75.10;14.90;97454.00;;;;5093709;28;20211;-87
2022/10/07 01:47:37;;;;;;;2.57;2.33;;;14.70;75.20;14.90;97453.00;;;;5076256;28;20193;-87
2022/10/07 01:50:11;;;;;;;2.90;2.70;;;14.70;75.30;14.90;97454.00;;;;5075767;28;20255;-87
2022/10/07 01:53:02;;;;;;;2.80;2.60;;;14.70;75.60;14.90;97447.00;;;;5074535;28;20176;-87
2022/10/07 01:55:50;;;;;;;2.90;2.67;;;14.70;75.80;14.90;97451.00;;;;5079164;28;20215;-86
2022/10/07 01:58:36;;;;;;;2.53;2.40;;;14.70;75.70;14.90;97458.00;;;;5095363;28;20193;-88
2022/10/07 02:01:17;;;;;;;2.60;2.40;;;14.70;75.50;14.90;97455.00;;;;5087173;28;20642;-87
2022/10/07 02:04:10;;;;;;;2.70;2.50;;;14.70;75.50;14.90;97444.00;;;;5091273;28;20546;-87
2022/10/07 02:06:49;;;;;;;2.60;2.40;;;14.70;75.60;14.90;97446.00;;;;5076292;28;20205;-87
2022/10/07 02:09:30;;;;;;;2.03;1.93;;;14.70;75.60;14.90;97444.00;;;;5076831;28;20217;-87
2022/10/07 02:12:07;;;;;;;2.37;2.23;;;14.70;75.70;14.90;97440.00;;;;5074672;28;20223;-87
2022/10/07 02:14:44;;;;;;;2.23;2.03;;;14.70;75.70;14.90;97450.00;;;;5085609;28;20192;-88
2022/10/07 02:17:19;;;;;;;2.40;2.03;;;14.70;75.80;14.90;97440.00;;;;5087076;28;20212;-87
2022/10/07 02:19:53;;;;;;;2.27;2.17;;;14.70;75.90;14.90;97430.00;;;;5095622;28;20310;-87
2022/10/07 02:22:23;;;;;;;2.20;2.00;;;14.70;76.10;15.00;97437.00;;;;5079314;28;20207;-87
2022/10/07 02:24:57;;;;;;;2.20;2.10;;;14.70;76.20;15.00;97429.00;;;;5079595;28;20212;-87
2022/10/07 02:27:30;;;;;;;3.83;2.40;;;14.70;76.10;15.00;97432.00;;;;5083102;28;20226;-88
2022/10/07 02:30:04;;;;;;;2.30;2.10;;;14.70;76.10;15.00;97429.00;;;;5083873;28;20215;-87
2022/10/07 02:32:34;;;;;;;1.83;1.73;;;14.80;76.30;15.00;97433.00;;;;5092028;28;20215;-87
2022/10/07 02:35:12;;;;;;;1.93;1.77;;;14.80;76.30;15.00;97428.00;;;;5076046;28;20201;-87
2022/10/07 02:37:42;;;;;;;1.97;1.80;;;14.80;76.50;15.00;97433.00;;;;5076034;28;20196;-88
2022/10/07 02:40:09;;;;;;;1.97;1.87;;;14.80;76.50;15.10;97426.00;;;;5075308;28;20225;-87
2022/10/07 02:42:47;;;;;;;2.00;1.63;;;14.80;76.60;15.10;97420.00;;;;5093381;28;20231;-87
2022/10/07 02:45:25;;;;;;;1.73;1.60;;;14.80;76.80;15.10;97420.00;;;;5083482;28;20214;-87
2022/10/07 02:47:59;;;;;;;1.83;1.70;;;14.90;77.00;15.10;97421.00;;;;5087727;28;20620;-87
2022/10/07 02:50:34;;;;;;;1.70;1.60;;;14.90;77.00;15.20;97423.00;;;;5095557;28;20287;-87
2022/10/07 02:53:03;;;;;;;1.90;1.70;;;14.90;77.10;15.20;97426.00;;;;5095083;28;20199;-87
2022/10/07 02:55:32;;;;;;;1.90;1.77;;;14.90;77.20;15.30;97415.00;;;;5094763;28;20178;-86
2022/10/07 02:58:05;;;;;;;3.20;1.60;;;14.90;77.20;15.30;97416.00;;;;5094281;28;20203;-87
2022/10/07 03:00:40;;;;;;;1.87;1.77;;;15.00;77.40;15.30;97414.00;;;;5092944;28;20247;-87
2022/10/07 03:03:07;;;;;;;1.93;1.83;;;15.00;78.20;15.40;97416.00;;;;5082374;28;20616;-87
2022/10/07 03:05:35;;;;;;;2.47;1.53;;;15.10;77.60;15.40;97405.00;;;;5075830;28;20579;-87
2022/10/07 03:08:07;;;;;;;1.60;1.50;;;15.10;77.70;15.50;97409.00;;;;5075053;28;20192;-87
2022/10/07 03:10:35;;;;;;;1.60;1.50;;;15.10;77.70;15.50;97410.00;;;;5094316;28;20204;-87
2022/10/07 03:13:03;;;;;;;3.63;1.83;;;15.20;77.80;15.50;97410.00;;;;5090910;28;20211;-87
2022/10/07 03:15:34;;;;;;;2.07;1.60;;;15.20;77.90;15.60;97409.00;;;;5077554;28;20204;-87
2022/10/07 03:18:01;;;;;;;1.27;1.23;;;15.20;77.90;15.60;97417.00;;;;5079338;28;20197;-87
2022/10/07 03:20:31;;;;;;;2.93;1.50;;;15.30;77.90;15.70;97404.00;;;;5088098;28;20619;-87
2022/10/07 03:22:59;;;;;;;1.53;1.40;;;15.30;77.90;15.70;97406.00;;;;5094384;28;20203;-87
2022/10/07 03:25:27;;;;;;;1.50;1.40;;;15.40;78.10;15.70;97401.00;;;;5088111;28;20185;-87
2022/10/07 03:27:54;;;;;;;1.73;1.47;;;15.40;78.00;15.80;97407.00;;;;5089766;28;20196;-87
2022/10/07 03:30:22;;;;;;;1.70;1.57;;;15.40;78.00;15.80;97412.00;;;;5093886;28;20246;-87
2022/10/07 03:32:51;;;;;;;2.40;1.67;;;15.50;78.10;15.80;97403.00;;;;5092605;28;20200;-87
2022/10/07 03:35:18;;;;;;;1.87;1.57;;;15.50;78.10;15.80;97400.00;;;;5093751;28;20214;-87
2022/10/07 03:37:45;;;;;;;2.13;1.30;;;15.50;78.10;15.90;97402.00;;;;5080190;28;20280;-86
2022/10/07 03:40:12;;;;;;;1.60;1.50;;;15.50;78.80;15.90;97407.00;;;;5074544;28;20276;-87
2022/10/07 03:42:42;;;;;;;1.43;1.33;;;15.60;78.20;16.00;97400.00;;;;5075861;28;20193;-87
2022/10/07 03:45:10;;;;;;;2.20;1.30;;;15.60;78.20;16.00;97390.00;;;;5093048;28;20256;-87
2022/10/07 03:47:37;;;;;;;1.57;1.47;;;15.60;78.20;16.00;97389.00;;;;5081911;28;20228;-87
2022/10/07 03:50:07;;;;;;;1.30;1.20;;;15.70;78.20;16.00;97398.00;;;;5092723;28;20239;-88
2022/10/07 03:52:35;;;;;;;2.00;1.37;;;15.70;78.20;16.10;97396.00;;;;5089426;28;20200;-87
2022/10/07 03:55:03;;;;;;;1.30;1.20;;;15.70;78.20;16.10;97391.00;;;;5089150;28;20192;-87
2022/10/07 04:00:15;;;;;;;3.80;1.43;;;15.70;78.10;16.20;97385.00;;;;5075953;28;20222;-86
2022/10/07 04:02:42;;;;;;;1.93;1.40;;;15.80;78.10;16.20;97381.00;;;;5082980;28;20333;-87
2022/10/07 04:05:11;;;;;;;1.90;1.70;;;15.80;78.00;16.20;97381.00;;;;5091943;28;20200;-86
2022/10/07 04:07:38;;;;;;;2.83;1.60;;;15.90;78.10;16.20;97391.00;;;;5080736;28;20199;-87
2022/10/07 04:10:06;;;;;;;1.70;1.57;;;15.90;78.10;16.20;97388.00;;;;5090307;28;20253;-87
2022/10/07 04:12:33;;;;;;;1.40;1.10;;;15.90;78.20;16.20;97375.00;;;;5090071;28;20199;-88
2022/10/07 04:15:01;;;;;;;1.40;1.23;;;15.90;78.10;16.30;97379.00;;;;5090440;28;20203;-87
2022/10/07 04:17:28;;;;;;;1.80;1.33;;;15.90;78.20;16.30;97374.00;;;;5088967;28;20299;-87
2022/10/07 04:19:56;;;;;;;2.67;1.27;;;15.90;78.20;16.30;97373.00;;;;5088835;28;20234;-87
2022/10/07 04:22:26;;;;;;;1.43;1.30;;;16.00;78.20;16.30;97378.00;;;;5071053;28;20197;-87
2022/10/07 04:27:38;;;;;;;1.83;1.37;;;16.00;78.00;16.40;97359.00;;;;5078751;28;20202;-86
2022/10/07 04:30:07;;;;;;;1.60;1.50;;;16.00;78.00;16.40;97365.00;;;;5091779;28;20204;-87
2022/10/07 04:32:35;;;;;;;2.37;1.50;;;16.10;78.20;16.40;97366.00;;;;5077455;28;20665;-87
2022/10/07 04:35:04;;;;;;;1.27;1.17;;;16.10;78.10;16.40;97355.00;;;;5093104;28;20211;-87
2022/10/07 04:37:32;;;;;;;1.30;1.20;;;16.10;78.10;16.40;97350.00;;;;5075636;28;20263;-87
2022/10/07 04:39:59;;;;;;;1.23;1.13;;;16.10;78.10;16.50;97354.00;;;;5094053;28;20212;-86
2022/10/07 04:45:12;;;;;;;1.67;1.20;;;16.10;78.10;16.50;97350.00;;;;5072498;28;20273;-87
2022/10/07 04:47:39;;;;;;;1.40;1.30;;;16.20;78.10;16.50;97352.00;;;;5073002;28;20269;-87
2022/10/07 04:50:08;;;;;;;1.90;1.57;;;16.20;78.10;16.50;97350.00;;;;5073179;28;20229;-87
2022/10/07 04:52:39;;;;;;;1.73;1.30;;;16.20;78.10;16.50;97346.00;;;;5092564;28;20202;-87
2022/10/07 04:55:08;;;;;;;1.10;1.10;;;16.20;78.20;16.50;97344.00;;;;5089900;28;20215;-87
2022/10/07 04:57:35;;;;;;;1.80;1.70;;;16.20;78.20;16.60;97347.00;;;;5073699;28;20196;-87
2022/10/07 05:00:02;;;;;;;1.43;1.33;;;16.20;78.10;16.60;97348.00;;;;5085631;28;20235;-87
2022/10/07 05:02:29;;;;;;;1.60;1.50;;;16.20;78.10;16.60;97344.00;;;;5073547;28;20204;-87
2022/10/07 05:04:56;;;;;;;2.33;1.77;;;16.20;78.10;16.60;97349.00;;;;5076735;28;20192;-87
2022/10/07 05:07:24;;;;;;;3.07;1.60;;;16.30;78.20;16.60;97353.00;;;;5087289;28;20187;-87
2022/10/07 05:09:52;;;;;;;1.47;1.30;;;16.30;78.20;16.60;97348.00;;;;5076340;28;20220;-87
2022/10/07 05:12:20;;;;;;;1.50;1.40;;;16.30;78.80;16.60;97344.00;;;;5078907;28;20215;-88
2022/10/07 05:14:47;;;;;;;1.73;1.63;;;16.30;78.10;16.60;97343.00;;;;5089222;28;20571;-88
2022/10/07 05:17:15;;;;;;;2.43;1.50;;;16.30;78.00;16.60;97343.00;;;;5085593;28;20200;-88
2022/10/07 05:19:42;;;;;;;1.93;1.50;;;16.30;78.00;16.60;97349.00;;;;5072215;28;20284;-87
2022/10/07 05:22:09;;;;;;;1.47;1.30;;;16.30;77.90;16.60;97346.00;;;;5074449;28;20188;-88
2022/10/07 05:24:36;;;;;;;1.80;1.67;;;16.30;77.90;16.60;97354.00;;;;5088181;28;20199;-86
2022/10/07 05:27:05;;;;;;;1.70;1.47;;;16.30;78.50;16.60;97350.00;;;;5096973;28;20216;-87
2022/10/07 05:29:32;;;;;;;2.13;1.63;;;16.30;77.80;16.60;97354.00;;;;5089064;28;20288;-87
2022/10/07 05:31:59;;;;;;;3.07;1.80;;;16.30;77.70;16.60;97353.00;;;;5083483;28;20199;-86
2022/10/07 05:34:26;;;;;;;2.00;1.77;;;16.30;77.60;16.60;97348.00;;;;5079870;28;20188;-86
2022/10/07 05:36:53;;;;;;;3.13;1.70;;;16.30;77.60;16.60;97347.00;;;;5077437;28;20204;-87
2022/10/07 05:39:20;;;;;;;1.80;1.60;;;16.30;77.60;16.60;97345.00;;;;5067912;28;20240;-87
2022/10/07 05:41:47;;;;;;;1.80;1.70;;;16.30;77.60;16.60;97345.00;;;;5084203;28;20200;-87
2022/10/07 05:44:16;;;;;;;1.70;1.60;;;16.30;77.60;16.60;97339.00;;;;5069948;28;20204;-86
2022/10/07 05:46:43;;;;;;;1.60;1.50;;;16.30;77.60;16.60;97350.00;;;;5085883;28;20196;-86
2022/10/07 05:49:10;;;;;;;2.60;2.10;;;16.30;77.50;16.60;97341.00;;;;5074897;28;20224;-85
2022/10/07 05:51:39;;;;;;;2.30;1.77;;;16.30;77.50;16.60;97350.00;;;;5092469;28;20226;-86
2022/10/07 05:54:07;;;;;;;1.70;1.60;;;16.30;77.40;16.60;97351.00;;;;5085227;28;20282;-87
2022/10/07 05:56:35;;;;;;;3.53;1.90;;;16.30;77.40;16.70;97354.00;;;;5092751;28;20208;-86
2022/10/07 05:59:03;;;;;;;2.83;1.97;;;16.30;77.30;16.70;97347.00;;;;5086211;28;20220;-87
2022/10/07 06:01:31;;;;;;;2.10;2.00;;;16.30;77.30;16.60;97350.00;;;;5076936;28;20240;-87
2022/10/07 06:03:58;;;;;;;2.20;2.10;;;16.30;77.10;16.60;97349.00;;;;5081471;28;20306;-87
2022/10/07 06:06:28;;;;;;;1.83;1.73;;;16.30;77.10;16.60;97352.00;;;;5091195;28;20641;-86
2022/10/07 06:13:06;;;;;;;3.40;2.10;;;16.20;77.70;16.60;97348.00;;;;5089894;28;20273;-85
2022/10/07 06:14:30;;;;;;;1.70;1.60;;;16.20;77.00;16.60;97349.00;;;;5082983;28;20199;-87
2022/10/07 06:16:59;;;;;;;1.80;1.70;;;16.20;76.90;16.50;97346.00;;;;5084999;28;20208;-87
2022/10/07 06:19:27;;;;;;;2.53;2.30;;;16.20;76.90;16.50;97346.00;;;;5090025;28;20216;-85
2022/10/07 06:21:54;;;;;;;2.20;2.00;;;16.20;77.00;16.50;97342.00;;;;5086053;28;20745;-87
2022/10/07 06:24:21;;;;;;;2.03;1.70;;;16.20;76.90;16.50;97350.00;;;;5091459;28;20230;-87
2022/10/07 06:26:50;;;;;;;1.97;1.83;;;16.10;76.90;16.50;97345.00;;;;5090955;28;20184;-86
2022/10/07 06:29:17;;;;;;;2.17;1.90;;;16.10;76.90;16.50;97353.00;;;;5086656;28;20229;-86
2022/10/07 06:31:45;;;;;;;2.30;1.73;;;16.10;76.90;16.50;97350.00;;;;5081107;28;20284;-86
2022/10/07 06:34:13;;;;;;;1.93;1.77;;;16.10;77.00;16.50;97346.00;;;;5082656;28;20210;-86
2022/10/07 06:36:41;;;;;;;2.33;2.13;;;16.10;77.10;16.50;97353.00;;;;5091736;28;20196;-86
2022/10/07 06:39:08;;;;;;;2.37;2.17;;;16.10;77.20;16.50;97343.00;;;;5084127;28;20220;-87
2022/10/07 06:41:35;;;;;;;2.10;2.00;;;16.10;77.30;16.50;97342.00;;;;5091022;28;20220;-87
2022/10/07 06:44:02;;;;;;;3.83;2.20;;;16.10;77.30;16.50;97344.00;;;;5091613;28;20211;-86
2022/10/07 06:46:29;;;;;;;2.13;1.87;;;16.10;77.40;16.50;97346.00;;;;5094610;28;20197;-86
2022/10/07 06:48:57;;;;;;;2.30;2.10;;;16.10;77.50;16.50;97343.00;;;;5083030;28;20236;-86
2022/10/07 06:51:27;;;;;;;2.33;2.23;;;16.10;77.60;16.60;97351.00;;;;5098201;28;20216;-86
2022/10/07 06:53:56;;;;;;;2.63;2.43;;;16.10;77.70;16.60;97354.00;;;;5093518;28;20312;-86
2022/10/07 06:56:23;;;;;;;3.83;2.60;;;16.10;77.90;16.60;97355.00;;;;5079671;28;20200;-86
2022/10/07 06:58:51;;;;;;;2.73;2.47;;;16.20;78.10;16.70;97354.00;;;;5079697;28;20216;-86
2022/10/07 07:01:18;;;;;;;2.40;2.20;;;16.20;78.20;16.70;97359.00;;;;5078613;28;20228;-86
2022/10/07 07:03:45;;;;;;;2.70;2.50;;;16.20;78.30;16.80;97367.00;;;;5091349;28;20224;-87
2022/10/07 07:06:13;;;;;;;3.50;2.50;;;16.30;78.50;16.80;97358.00;;;;5088905;28;20211;-86
2022/10/07 07:08:43;;;;;;;2.80;2.60;;;16.30;78.70;16.90;97367.00;;;;5097932;28;20183;-86
2022/10/07 07:13:59;;;;;;;2.80;2.57;;;16.40;78.90;17.00;97358.00;;;;5066320;28;20206;-81
2022/10/07 07:16:28;;;;;;;4.60;3.03;;;16.50;78.80;17.10;97360.00;;;;5075001;28;20220;-81
2022/10/07 07:18:58;;;;;;;4.23;3.13;;;16.50;78.80;17.10;97363.00;;;;5067499;28;20227;-82
2022/10/07 07:21:27;;;;;;;3.87;3.13;;;16.60;78.90;17.20;97363.00;;;;5076086;28;20976;-81
2022/10/07 07:23:57;;;;;;;3.87;3.53;;;16.70;78.90;17.30;97361.00;;;;5070543;28;20219;-81
2022/10/07 07:26:27;;;;;;;5.17;4.17;;;16.70;78.80;17.30;97361.00;;;;5074242;28;20192;-81
2022/10/07 07:28:57;;;;;;;5.70;4.77;;;16.80;78.70;17.30;97354.00;;;;5074636;28;20218;-82
2022/10/07 07:31:28;;;;;;;6.77;5.10;;;16.80;78.70;17.40;97356.00;;;;5075999;28;20277;-81
2022/10/07 07:33:56;;;;;;;6.63;5.43;;;16.90;78.80;17.40;97361.00;;;;5059712;28;20623;-82
2022/10/07 07:36:26;;;;;;;6.33;5.73;;;16.90;78.80;17.50;97357.00;;;;5054493;28;20249;-82
2022/10/07 07:39:00;;;;;;;7.17;6.03;;;17.00;78.80;17.60;97358.00;;;;5066102;28;20231;-81
2022/10/07 07:41:35;;;;;;;9.13;5.90;;;17.00;78.80;17.60;97357.00;;;;5065260;28;20279;-81
2022/10/07 07:44:07;;;;;;;7.60;5.97;;;17.10;78.90;17.60;97358.00;;;;5066716;28;20261;-82
2022/10/07 07:46:40;;;;;;;9.00;6.43;;;17.10;78.80;17.70;97361.00;;;;5064491;28;20212;-82
2022/10/07 07:49:09;;;;;;;7.97;6.00;;;17.20;78.80;17.70;97353.00;;;;5067828;28;20226;-81
2022/10/07 07:51:41;;;;;;;9.23;6.57;;;17.20;78.80;17.70;97362.00;;;;5064664;28;20680;-82
2022/10/07 07:54:13;;;;;;;10.83;6.83;;;17.20;78.80;17.80;97358.00;;;;5066924;28;20286;-82
2022/10/07 07:56:41;;;;;;;10.93;7.27;;;17.30;78.90;17.80;97354.00;;;;5063456;28;20348;-82
2022/10/07 07:59:14;;;;;;;10.73;7.63;;;17.30;78.90;17.80;97353.00;;;;5064388;28;20204;-83
2022/10/07 08:01:44;;;;;;;9.53;7.47;;;17.30;78.80;17.80;97354.00;;;;5064717;28;20231;-82
2022/10/07 08:04:15;;;;;;;13.97;8.47;;;17.30;78.80;17.80;97353.00;;;;5063719;28;20578;-82
2022/10/07 08:06:43;;;;;;;11.33;8.00;;;17.40;78.70;17.90;97352.00;;;;5065074;28;20238;-82
2022/10/07 08:09:20;;;;;;;12.77;8.70;;;17.40;78.70;17.90;97350.00;;;;5067463;28;20240;-82
2022/10/07 08:11:50;;;;;;;12.20;9.57;;;17.40;78.80;17.90;97346.00;;;;5062907;28;20864;-82
2022/10/07 08:14:17;;;;;;;10.93;8.93;;;17.40;78.70;17.90;97344.00;;;;5065054;28;20268;-82
2022/10/07 08:16:46;;;;;;;15.47;10.77;;;17.50;78.70;17.90;97343.00;;;;5055606;28;20292;-81
2022/10/07 08:19:14;;;;;;;14.27;9.87;;;17.50;78.70;17.90;97343.00;;;;5049148;28;20214;-82
2022/10/07 08:21:42;;;;;;;14.77;9.73;;;17.50;78.60;18.00;97346.00;;;;5062211;28;20212;-83
2022/10/07 08:24:15;;;;;;;16.80;9.80;;;17.50;78.60;18.00;97347.00;;;;5060751;28;20201;-81
2022/10/07 08:26:44;;;;;;;13.23;9.90;;;17.60;78.70;18.10;97340.00;;;;5061296;28;20193;-81
2022/10/07 08:29:16;;;;;;;12.23;9.83;;;17.60;78.80;18.10;97335.00;;;;5062356;28;20216;-83
2022/10/07 08:31:51;;;;;;;14.57;10.17;;;17.60;78.70;18.10;97345.00;;;;5063780;28;22145;-82
2022/10/07 08:34:25;;;;;;;15.10;10.17;;;17.70;78.60;18.10;97341.00;;;;5064022;28;20557;-83
2022/10/07 08:36:52;;;;;;;14.63;10.70;;;17.70;78.60;18.20;97348.00;;;;5064372;28;20236;-83
2022/10/07 08:39:25;;;;;;;18.43;12.33;;;17.70;78.60;18.20;97336.00;;;;5067511;28;20811;-83
2022/10/07 08:42:07;;;;;;;17.00;11.83;;;17.70;78.60;18.20;97334.00;;;;5062187;28;20215;-83
2022/10/07 08:44:43;;;;;;;17.20;11.33;;;17.80;78.50;18.30;97339.00;;;;5060926;28;20218;-82
2022/10/07 08:47:29;;;;;;;16.60;11.73;;;17.80;78.50;18.30;97333.00;;;;5067398;28;20669;-82
2022/10/07 08:50:13;;;;;;;14.27;11.03;;;17.80;78.50;18.30;97326.00;;;;5063201;28;20192;-82
2022/10/07 08:52:49;;;;;;;19.60;12.13;;;17.90;78.60;18.40;97324.00;;;;5064129;28;20265;-82
2022/10/07 08:55:27;;;;;;;16.00;12.17;;;17.90;78.50;18.40;97325.00;;;;5065678;28;20196;-83
2022/10/07 08:58:30;;;;;;;17.50;11.57;;;17.90;78.50;18.50;97328.00;;;;5064086;28;20208;-82
2022/10/07 09:01:07;;;;;;;17.37;11.67;;;18.00;78.60;18.50;97326.00;;;;5067391;28;20204;-83
2022/10/07 09:03:50;;;;;;;15.50;11.23;;;18.00;78.50;18.60;97316.00;;;;5062060;28;20303;-83
2022/10/07 09:06:30;;;;;;;14.70;11.00;;;18.00;78.50;18.60;97321.00;;;;5063733;28;20204;-83
2022/10/07 09:09:13;;;;;;;15.97;11.10;;;18.00;78.40;18.60;97309.00;;;;5063898;28;20215;-83
2022/10/07 09:12:06;;;;;;;14.87;10.77;;;18.10;78.40;18.60;97308.00;;;;5070709;28;20250;-83
2022/10/07 09:14:40;;;;;;;16.23;10.83;;;18.10;78.30;18.70;97313.00;;;;5071102;28;20207;-82
2022/10/07 09:17:34;;;;;;;15.43;10.93;;;18.20;78.20;18.70;97306.00;;;;5074066;28;20660;-83
2022/10/07 09:20:12;;;;;;;15.53;11.07;;;18.20;78.10;18.70;97302.00;;;;5058941;28;20196;-83
2022/10/07 09:22:41;;;;;;;17.97;11.67;;;18.20;78.10;18.80;97298.00;;;;5075292;28;20227;-82
2022/10/07 09:25:21;;;;;;;16.63;12.77;;;18.20;78.10;18.80;97308.00;;;;5064982;28;20622;-83
2022/10/07 09:27:53;;;;;;;15.43;11.43;;;18.30;77.70;18.70;97312.00;;;;5053931;28;20189;-83
2022/10/07 09:30:31;;;;;;;16.33;11.40;;;18.30;77.60;18.70;97311.00;;;;5071686;28;20203;-82
2022/10/07 09:32:58;;;;;;;15.87;11.30;;;18.30;77.60;18.70;97309.00;;;;5069912;28;20310;-82
2022/10/07 09:35:37;;;;;;;16.13;11.50;;;18.30;77.70;18.70;97302.00;;;;5049876;28;20219;-82
2022/10/07 09:38:08;;;;;;;16.00;10.83;;;18.30;77.80;18.70;97302.00;;;;5057954;28;20268;-82
2022/10/07 09:43:32;;;;;;;15.10;11.77;;;18.30;77.70;18.80;97302.00;;;;5060150;28;20208;-82
2022/10/07 09:46:05;;;;;;;15.43;11.83;;;18.30;78.50;18.80;97310.00;;;;5069727;28;21208;-82
2022/10/07 09:48:34;;;;;;;15.43;10.97;;;18.30;77.60;18.90;97303.00;;;;5065937;28;20205;-81
2022/10/07 09:51:25;;;;;;;15.63;12.17;;;18.40;77.80;18.90;97300.00;;;;5070841;28;20251;-82
2022/10/07 09:54:01;;;;;;;17.13;12.23;;;18.40;77.60;18.90;97303.00;;;;5067805;28;20196;-82
2022/10/07 09:56:41;;;;;;;16.77;12.30;;;18.40;77.60;18.90;97297.00;;;;5070035;28;20200;-82
2022/10/07 09:59:23;;;;;;;16.50;11.83;;;18.40;77.60;19.00;97297.00;;;;5067841;28;20232;-84
2022/10/07 10:02:23;;;;;;;14.03;10.37;;;18.50;77.50;19.00;97278.00;;;;5066855;28;20250;-83
2022/10/07 10:09:00;;;;;;;18.00;12.07;;;18.50;77.50;19.10;97279.00;;;;5030635;28;20264;-82
2022/10/07 10:12:54;;;;;;;;;;;;;;;;;;;;;
2022/10/07 10:16:00;;;;;;;17.40;12.27;;;18.50;77.10;19.10;97278.00;;;;4987087;28;20596;-84
2022/10/07 10:19:04;;;;;;;15.90;11.73;;;18.60;77.30;19.20;97276.00;;;;5071142;22;20228;-83
2022/10/07 10:21:56;;;;;;;15.10;11.33;;;18.50;77.40;19.30;97271.00;;;;5061856;28;20762;-82
2022/10/07 10:28:01;;;;;;;16.80;12.97;;;18.70;76.90;19.30;97277.00;;;;5071194;22;20584;-87
2022/10/07 10:30:30;;;;;;;16.07;12.27;;;18.80;77.00;19.30;97271.00;;;;5053485;28;20247;-87
2022/10/07 10:33:26;;;;;;;17.00;12.50;;;18.80;77.00;19.40;97279.00;;;;5044401;28;20231;-87
2022/10/07 10:36:12;;;;;;;15.73;12.20;;;18.80;77.00;19.40;97273.00;;;;5044342;28;20254;-87
2022/10/07 10:38:48;;;;;;;15.10;12.47;;;18.90;77.10;19.40;97271.00;;;;5043274;28;20200;-87
2022/10/07 10:41:44;;;;;;;16.03;13.57;;;18.90;77.00;19.40;97266.00;;;;5066736;22;20234;-83
2022/10/07 10:45:08;;;;;;;16.30;12.33;;;18.80;77.00;19.50;97252.00;;;;5063145;28;20196;-83
2022/10/07 10:48:07;;;;;;;13.30;10.93;;;18.90;77.00;19.50;97248.00;;;;5049564;28;20246;-84
2022/10/07 10:50:59;;;;;;;13.87;11.80;;;19.00;76.90;19.50;97245.00;;;;5061965;28;20196;-83
2022/10/07 10:54:17;;;;;;;13.47;10.70;;;19.00;76.60;19.60;97244.00;;;;5043707;28;20589;-83
2022/10/07 11:00:23;;;;;;;14.23;10.67;;;19.00;77.00;19.60;97239.00;;;;4956491;28;20678;-83
2022/10/07 11:07:53;;;;;;;16.70;10.33;;;19.00;76.90;19.70;97233.00;;;;5008152;28;20276;-83
2022/10/07 11:10:44;;;;;;;11.67;10.47;;;18.90;76.80;19.80;97232.00;;;;5045057;28;20323;-83
2022/10/07 11:14:15;;;;;;;12.13;10.87;;;19.20;77.00;19.90;97225.00;;;;5053057;28;20701;-83
2022/10/07 11:16:59;;;;;;;15.50;10.90;;;19.30;77.00;20.00;97218.00;;;;5049365;28;20200;-84
2022/10/07 11:20:16;;;;;;;;;;;;;;;;;;;;;
2022/10/07 11:23:28;;;;;;;14.93;11.07;;;19.40;77.10;20.10;97222.00;;;;5050937;28;20218;-84
2022/10/07 11:26:43;;;;;;;12.17;10.50;;;19.40;77.00;20.20;97214.00;;;;5052211;28;20268;-84
2022/10/07 11:29:56;;;;;;;13.00;10.87;;;19.60;76.80;20.20;97212.00;;;;5043739;28;20669;-83
2022/10/07 11:33:12;;;;;;;13.90;10.57;;;19.50;76.70;20.30;97193.00;;;;5037370;28;20255;-84
2022/10/07 11:36:29;;;;;;;13.37;10.57;;;19.60;76.40;20.30;97198.00;;;;5046091;28;20200;-84
2022/10/07 11:39:45;;;;;;;11.93;10.20;;;19.70;76.10;20.40;97199.00;;;;5016059;28;20262;-83
2022/10/07 11:42:28;;;;;;;14.47;9.97;;;19.20;76.30;20.40;97206.00;;;;5041664;28;20221;-84
2022/10/07 11:45:36;;;;;;;;;;;;;;;;;;;;;
2022/10/07 11:48:45;;;;;;;12.30;10.13;;;19.80;76.20;20.50;97199.00;;;;5043871;28;20203;-84
2022/10/07 11:51:52;;;;;;;13.27;10.67;;;19.80;76.00;20.50;97203.00;;;;5078594;22;20231;-80
2022/10/07 11:54:32;;;;;;;12.07;10.03;;;19.90;75.90;20.50;97177.00;;;;5059963;28;20715;-81
2022/10/07 12:00:33;;;;;;;13.67;11.03;;;19.90;75.80;20.60;97184.00;;;;5041892;28;20555;-83
2022/10/07 12:03:58;;;;;;;13.93;10.47;;;20.00;75.50;20.60;97177.00;;;;5053921;28;20278;-83
2022/10/07 12:07:22;;;;;;;13.27;9.80;;;20.00;75.70;20.70;97163.00;;;;5056985;28;20235;-80